Bunker Hill, Kansas
Current Conditions -  °F | °C
As of 7:53 AM on Saturday 20 Dec 2014 (Local Time) from KRSL Reporting Station
Haze Haze  
Wind Chill: 19°   Ceiling: Unl
Heat Index: 27°   Visibility: 3mi
Dew Point: 26°   Wind: 8mph
Humidity: 96%   Direction: 190°S
Pressure: 30.08"   Gusts: NA
Location:  38.88°N, 98.7°W
Report Text: KRSL 201353Z AUTO 19007KT 3SM BR CLR M03/M03 A3008 RMK AO2 SLP203 T10281033
Loading
Personal Weather Stations






























Interactive Weather Map New forecast layout! Learn more

10-Day Weather Forecast

Advertisements
Track Severe Weather on mobile